Main page
METAR-TAF:

METAR-TAF

Airports :

Katowice International Airport

Katowice, Poland

latitude: 50-28-27N, longitude: 019-04-48E, elevation: 284 m

Current weather observation

The report was made 11 minutes ago, at 10:00 UTC
Wind 15 kt from the Southwest
Temperature 0°C
Humidity 74%
Pressure 1017 hPa
Visibility 10 km or more
no clouds below 1500 m and no cumulonimbus

METAR: EPKT 061000Z 22015KT CAVOK M00/M04 Q1017

Time: 11:11 (10:11 UTC)

Forecast

The report was made 4 hours and 41 minutes ago, at 05:30 UTC
Forecast valid from 06 at 06 UTC to 07 at 06 UTC
Wind 15 kt from the Southwest
Visibility 10 km or more
Broken clouds at a height of 900 ft
Becoming
from 06 at 06 UTC to 06 at 09 UTC
Visibility 10 km or more
no clouds below 1500 m and no cumulonimbus
Temporary
from 06 at 06 UTC to 07 at 06 UTC
Wind 15 kt from the Southwest with gusts up to 28 kt

TAF: EPKT 060530Z 0606/0706 23015KT 9999 BKN009 BECMG 0606/0609 CAVOK TEMPO 0606/0706 23015G28KT

Weather observations and forecasts of more than 4000 airports (METAR and TAF reports).

The available stations are represented by yellow and red dots on the map.

Hover mouse over dot to see the name of the station.

Then click to see weather observations and forecasts.

To change the map : click on the green buttons with a black cross to zoom in, on the green button with a dash to zoom out, or on the green arrows for adjacent maps.


METAR-TAF: